sensor_id;sensor_type;location;lat;lon;timestamp;temperature;humidity
70851;DHT22;58475;49.662;9.636;2023-04-25T00:00:25;9.24;84.17
70851;DHT22;58475;49.662;9.636;2023-04-25T00:02:50;9.30;84.16
70851;DHT22;58475;49.662;9.636;2023-04-25T00:05:16;9.31;84.19
70851;DHT22;58475;49.662;9.636;2023-04-25T00:07:42;9.30;84.33
70851;DHT22;58475;49.662;9.636;2023-04-25T00:10:08;9.18;84.70
70851;DHT22;58475;49.662;9.636;2023-04-25T00:12:34;9.08;85.14
70851;DHT22;58475;49.662;9.636;2023-04-25T00:15:01;9.17;84.76
70851;DHT22;58475;49.662;9.636;2023-04-25T00:17:26;9.23;85.22
70851;DHT22;58475;49.662;9.636;2023-04-25T00:19:52;9.18;84.75
70851;DHT22;58475;49.662;9.636;2023-04-25T00:22:18;9.08;85.44
70851;DHT22;58475;49.662;9.636;2023-04-25T00:24:43;9.07;85.29
70851;DHT22;58475;49.662;9.636;2023-04-25T00:27:09;9.08;85.16
70851;DHT22;58475;49.662;9.636;2023-04-25T00:29:34;9.11;84.44
70851;DHT22;58475;49.662;9.636;2023-04-25T00:31:59;9.07;85.03
70851;DHT22;58475;49.662;9.636;2023-04-25T00:34:25;9.00;85.68
70851;DHT22;58475;49.662;9.636;2023-04-25T00:36:51;9.04;85.83
70851;DHT22;58475;49.662;9.636;2023-04-25T00:39:16;9.08;85.45
70851;DHT22;58475;49.662;9.636;2023-04-25T00:41:42;9.07;85.60
70851;DHT22;58475;49.662;9.636;2023-04-25T00:44:08;9.10;85.34
70851;DHT22;58475;49.662;9.636;2023-04-25T00:46:36;9.03;85.69
70851;DHT22;58475;49.662;9.636;2023-04-25T00:49:02;9.01;85.78
70851;DHT22;58475;49.662;9.636;2023-04-25T00:51:27;9.00;86.08
70851;DHT22;58475;49.662;9.636;2023-04-25T00:53:53;8.99;86.21
70851;DHT22;58475;49.662;9.636;2023-04-25T00:56:19;9.00;85.66
70851;DHT22;58475;49.662;9.636;2023-04-25T00:58:45;8.99;85.47
70851;DHT22;58475;49.662;9.636;2023-04-25T01:01:11;8.97;85.23
70851;DHT22;58475;49.662;9.636;2023-04-25T01:03:38;9.05;84.94
70851;DHT22;58475;49.662;9.636;2023-04-25T01:06:09;8.97;86.25
70851;DHT22;58475;49.662;9.636;2023-04-25T01:08:37;8.91;86.17
70851;DHT22;58475;49.662;9.636;2023-04-25T01:11:03;8.93;86.19
70851;DHT22;58475;49.662;9.636;2023-04-25T01:13:28;8.88;86.21
70851;DHT22;58475;49.662;9.636;2023-04-25T01:15:54;8.97;86.38
70851;DHT22;58475;49.662;9.636;2023-04-25T01:18:20;8.90;86.88
70851;DHT22;58475;49.662;9.636;2023-04-25T01:20:46;8.87;86.83
70851;DHT22;58475;49.662;9.636;2023-04-25T01:23:12;8.83;86.93
70851;DHT22;58475;49.662;9.636;2023-04-25T01:25:38;8.87;86.57
70851;DHT22;58475;49.662;9.636;2023-04-25T01:28:04;8.84;88.17
70851;DHT22;58475;49.662;9.636;2023-04-25T01:30:31;8.84;87.37
70851;DHT22;58475;49.662;9.636;2023-04-25T01:32:57;8.84;87.07
70851;DHT22;58475;49.662;9.636;2023-04-25T01:35:23;8.77;86.82
70851;DHT22;58475;49.662;9.636;2023-04-25T01:37:53;8.80;87.67
70851;DHT22;58475;49.662;9.636;2023-04-25T01:40:20;8.79;87.75
70851;DHT22;58475;49.662;9.636;2023-04-25T01:42:46;8.77;87.65
70851;DHT22;58475;49.662;9.636;2023-04-25T01:45:12;8.79;87.12
70851;DHT22;58475;49.662;9.636;2023-04-25T01:47:39;8.72;88.92
70851;DHT22;58475;49.662;9.636;2023-04-25T01:50:09;8.73;89.17
70851;DHT22;58475;49.662;9.636;2023-04-25T01:52:35;8.73;88.53
70851;DHT22;58475;49.662;9.636;2023-04-25T01:55:02;8.70;88.67
70851;DHT22;58475;49.662;9.636;2023-04-25T01:57:29;8.73;88.03
70851;DHT22;58475;49.662;9.636;2023-04-25T01:59:58;8.60;87.79
70851;DHT22;58475;49.662;9.636;2023-04-25T02:02:39;8.50;87.27
70851;DHT22;58475;49.662;9.636;2023-04-25T02:05:09;8.46;87.42
70851;DHT22;58475;49.662;9.636;2023-04-25T02:07:38;8.42;88.52
70851;DHT22;58475;49.662;9.636;2023-04-25T02:10:03;8.46;87.89
70851;DHT22;58475;49.662;9.636;2023-04-25T02:12:32;8.46;88.52
70851;DHT22;58475;49.662;9.636;2023-04-25T02:15:06;8.45;88.96
70851;DHT22;58475;49.662;9.636;2023-04-25T02:17:42;8.42;89.20
70851;DHT22;58475;49.662;9.636;2023-04-25T02:20:07;8.36;88.42
70851;DHT22;58475;49.662;9.636;2023-04-25T02:22:33;8.48;89.35
70851;DHT22;58475;49.662;9.636;2023-04-25T02:24:59;8.46;88.33
70851;DHT22;58475;49.662;9.636;2023-04-25T02:27:24;8.36;87.27
70851;DHT22;58475;49.662;9.636;2023-04-25T02:29:50;8.41;87.17
70851;DHT22;58475;49.662;9.636;2023-04-25T02:32:15;8.42;87.74
70851;DHT22;58475;49.662;9.636;2023-04-25T02:34:41;8.29;87.79
70851;DHT22;58475;49.662;9.636;2023-04-25T02:37:06;8.39;88.02
70851;DHT22;58475;49.662;9.636;2023-04-25T02:39:32;8.38;88.40
70851;DHT22;58475;49.662;9.636;2023-04-25T02:41:57;8.31;89.23
70851;DHT22;58475;49.662;9.636;2023-04-25T02:44:22;8.29;88.49
70851;DHT22;58475;49.662;9.636;2023-04-25T02:46:47;8.25;87.73
70851;DHT22;58475;49.662;9.636;2023-04-25T02:49:13;8.26;87.15
70851;DHT22;58475;49.662;9.636;2023-04-25T02:51:38;8.31;88.04
70851;DHT22;58475;49.662;9.636;2023-04-25T02:54:04;8.32;87.51
70851;DHT22;58475;49.662;9.636;2023-04-25T02:56:33;8.32;88.02
70851;DHT22;58475;49.662;9.636;2023-04-25T02:58:58;8.26;88.18
70851;DHT22;58475;49.662;9.636;2023-04-25T03:01:24;8.14;88.41
70851;DHT22;58475;49.662;9.636;2023-04-25T03:03:49;8.20;88.56
70851;DHT22;58475;49.662;9.636;2023-04-25T03:06:14;8.12;87.72
70851;DHT22;58475;49.662;9.636;2023-04-25T03:08:41;8.24;89.26
70851;DHT22;58475;49.662;9.636;2023-04-25T03:11:06;8.31;88.35
70851;DHT22;58475;49.662;9.636;2023-04-25T03:13:32;8.15;88.25
70851;DHT22;58475;49.662;9.636;2023-04-25T03:15:58;8.15;88.52
70851;DHT22;58475;49.662;9.636;2023-04-25T03:18:23;8.16;87.88
70851;DHT22;58475;49.662;9.636;2023-04-25T03:20:48;8.16;87.41
70851;DHT22;58475;49.662;9.636;2023-04-25T03:23:14;8.24;86.32
70851;DHT22;58475;49.662;9.636;2023-04-25T03:25:41;8.32;86.94
70851;DHT22;58475;49.662;9.636;2023-04-25T03:28:06;8.33;87.03
70851;DHT22;58475;49.662;9.636;2023-04-25T03:30:32;8.31;86.76
70851;DHT22;58475;49.662;9.636;2023-04-25T03:32:58;8.35;86.46
70851;DHT22;58475;49.662;9.636;2023-04-25T03:35:23;8.29;87.47
70851;DHT22;58475;49.662;9.636;2023-04-25T03:37:49;8.22;88.03
70851;DHT22;58475;49.662;9.636;2023-04-25T03:40:19;8.16;88.50
70851;DHT22;58475;49.662;9.636;2023-04-25T03:43:03;8.22;88.85
70851;DHT22;58475;49.662;9.636;2023-04-25T03:45:29;8.11;88.78
70851;DHT22;58475;49.662;9.636;2023-04-25T03:47:54;8.15;89.12
70851;DHT22;58475;49.662;9.636;2023-04-25T03:50:22;8.12;89.63
70851;DHT22;58475;49.662;9.636;2023-04-25T03:52:50;8.06;89.47
70851;DHT22;58475;49.662;9.636;2023-04-25T03:55:16;8.06;90.95
70851;DHT22;58475;49.662;9.636;2023-04-25T03:57:41;8.05;90.69
70851;DHT22;58475;49.662;9.636;2023-04-25T04:00:07;8.02;91.14
70851;DHT22;58475;49.662;9.636;2023-04-25T04:02:38;8.06;91.91
70851;DHT22;58475;49.662;9.636;2023-04-25T04:05:04;8.02;91.76
70851;DHT22;58475;49.662;9.636;2023-04-25T04:07:32;8.04;91.73
70851;DHT22;58475;49.662;9.636;2023-04-25T04:09:59;7.98;92.54
70851;DHT22;58475;49.662;9.636;2023-04-25T04:12:31;7.95;92.48
70851;DHT22;58475;49.662;9.636;2023-04-25T04:14:56;7.87;91.41
70851;DHT22;58475;49.662;9.636;2023-04-25T04:17:21;7.97;92.28
70851;DHT22;58475;49.662;9.636;2023-04-25T04:19:47;8.04;92.77
70851;DHT22;58475;49.662;9.636;2023-04-25T04:22:17;7.94;92.24
70851;DHT22;58475;49.662;9.636;2023-04-25T04:24:42;8.01;92.25
70851;DHT22;58475;49.662;9.636;2023-04-25T04:27:14;7.94;92.09
70851;DHT22;58475;49.662;9.636;2023-04-25T04:30:00;7.94;92.22
70851;DHT22;58475;49.662;9.636;2023-04-25T04:32:33;7.94;92.24
70851;DHT22;58475;49.662;9.636;2023-04-25T04:34:59;7.94;92.88
70851;DHT22;58475;49.662;9.636;2023-04-25T04:37:25;7.87;92.14
70851;DHT22;58475;49.662;9.636;2023-04-25T04:39:50;7.94;91.06
70851;DHT22;58475;49.662;9.636;2023-04-25T04:42:28;7.93;91.55
70851;DHT22;58475;49.662;9.636;2023-04-25T04:45:06;7.97;91.82
70851;DHT22;58475;49.662;9.636;2023-04-25T04:47:48;7.85;90.78
70851;DHT22;58475;49.662;9.636;2023-04-25T04:50:23;7.95;91.90
70851;DHT22;58475;49.662;9.636;2023-04-25T04:53:05;7.88;90.79
70851;DHT22;58475;49.662;9.636;2023-04-25T04:55:51;7.83;91.52
70851;DHT22;58475;49.662;9.636;2023-04-25T04:58:36;7.95;90.87
70851;DHT22;58475;49.662;9.636;2023-04-25T05:01:09;7.78;91.24
70851;DHT22;58475;49.662;9.636;2023-04-25T05:03:54;7.93;91.86
70851;DHT22;58475;49.662;9.636;2023-04-25T05:06:42;7.93;91.83
70851;DHT22;58475;49.662;9.636;2023-04-25T05:09:26;7.94;90.95
70851;DHT22;58475;49.662;9.636;2023-04-25T05:12:14;8.32;89.75
70851;DHT22;58475;49.662;9.636;2023-04-25T05:14:59;8.24;89.19
70851;DHT22;58475;49.662;9.636;2023-04-25T05:17:38;8.12;90.53
70851;DHT22;58475;49.662;9.636;2023-04-25T05:20:39;8.42;91.24
70851;DHT22;58475;49.662;9.636;2023-04-25T05:23:10;8.24;91.07
70851;DHT22;58475;49.662;9.636;2023-04-25T05:25:56;8.21;92.32
70851;DHT22;58475;49.662;9.636;2023-04-25T05:28:45;8.18;91.81
70851;DHT22;58475;49.662;9.636;2023-04-25T05:31:30;8.18;92.55
70851;DHT22;58475;49.662;9.636;2023-04-25T05:34:00;8.16;91.63
70851;DHT22;58475;49.662;9.636;2023-04-25T05:36:36;8.22;91.36
70851;DHT22;58475;49.662;9.636;2023-04-25T05:39:01;8.31;89.65
70851;DHT22;58475;49.662;9.636;2023-04-25T05:41:47;8.32;89.70
70851;DHT22;58475;49.662;9.636;2023-04-25T05:44:32;8.36;88.25
70851;DHT22;58475;49.662;9.636;2023-04-25T05:47:12;8.36;88.75
70851;DHT22;58475;49.662;9.636;2023-04-25T05:49:56;8.28;90.00
70851;DHT22;58475;49.662;9.636;2023-04-25T05:52:32;8.39;89.27
70851;DHT22;58475;49.662;9.636;2023-04-25T05:55:10;8.42;89.47
70851;DHT22;58475;49.662;9.636;2023-04-25T05:57:36;8.38;89.37
70851;DHT22;58475;49.662;9.636;2023-04-25T06:00:02;8.42;89.39
70851;DHT22;58475;49.662;9.636;2023-04-25T06:02:41;8.64;90.06
70851;DHT22;58475;49.662;9.636;2023-04-25T06:05:08;8.62;89.17
70851;DHT22;58475;49.662;9.636;2023-04-25T06:07:33;8.60;88.74
70851;DHT22;58475;49.662;9.636;2023-04-25T06:10:01;8.77;89.06
70851;DHT22;58475;49.662;9.636;2023-04-25T06:12:26;8.80;87.83
70851;DHT22;58475;49.662;9.636;2023-04-25T06:14:53;9.03;87.96
70851;DHT22;58475;49.662;9.636;2023-04-25T06:17:18;9.01;86.92
70851;DHT22;58475;49.662;9.636;2023-04-25T06:19:43;9.34;87.69
70851;DHT22;58475;49.662;9.636;2023-04-25T06:22:09;9.44;86.81
70851;DHT22;58475;49.662;9.636;2023-04-25T06:24:37;9.51;88.71
70851;DHT22;58475;49.662;9.636;2023-04-25T06:27:03;9.45;87.34
70851;DHT22;58475;49.662;9.636;2023-04-25T06:29:29;9.52;86.60
70851;DHT22;58475;49.662;9.636;2023-04-25T06:31:54;9.48;85.60
70851;DHT22;58475;49.662;9.636;2023-04-25T06:34:21;9.56;86.76
70851;DHT22;58475;49.662;9.636;2023-04-25T06:36:46;9.45;84.47
70851;DHT22;58475;49.662;9.636;2023-04-25T06:39:14;9.39;86.30
70851;DHT22;58475;49.662;9.636;2023-04-25T06:41:39;9.39;86.34
70851;DHT22;58475;49.662;9.636;2023-04-25T06:44:06;9.34;86.71
70851;DHT22;58475;49.662;9.636;2023-04-25T06:46:37;9.20;85.27
70851;DHT22;58475;49.662;9.636;2023-04-25T06:49:03;9.20;84.93
70851;DHT22;58475;49.662;9.636;2023-04-25T06:51:28;8.94;84.26
70851;DHT22;58475;49.662;9.636;2023-04-25T06:53:55;8.99;85.35
70851;DHT22;58475;49.662;9.636;2023-04-25T06:56:28;8.91;86.49
70851;DHT22;58475;49.662;9.636;2023-04-25T06:59:08;8.84;86.04
70851;DHT22;58475;49.662;9.636;2023-04-25T07:01:36;8.69;85.23
70851;DHT22;58475;49.662;9.636;2023-04-25T07:04:05;8.67;86.19
70851;DHT22;58475;49.662;9.636;2023-04-25T07:06:32;8.60;86.95
70851;DHT22;58475;49.662;9.636;2023-04-25T07:08:58;8.96;87.26
70851;DHT22;58475;49.662;9.636;2023-04-25T07:11:23;9.04;86.96
70851;DHT22;58475;49.662;9.636;2023-04-25T07:13:49;9.31;85.52
70851;DHT22;58475;49.662;9.636;2023-04-25T07:16:14;9.66;84.07
70851;DHT22;58475;49.662;9.636;2023-04-25T07:18:41;9.94;83.63
70851;DHT22;58475;49.662;9.636;2023-04-25T07:21:06;10.23;82.65
70851;DHT22;58475;49.662;9.636;2023-04-25T07:23:33;10.21;83.09
70851;DHT22;58475;49.662;9.636;2023-04-25T07:26:02;10.09;80.73
70851;DHT22;58475;49.662;9.636;2023-04-25T07:28:29;9.75;81.32
70851;DHT22;58475;49.662;9.636;2023-04-25T07:30:54;9.78;81.06
70851;DHT22;58475;49.662;9.636;2023-04-25T07:33:20;9.72;81.33
70851;DHT22;58475;49.662;9.636;2023-04-25T07:35:46;9.76;82.78
70851;DHT22;58475;49.662;9.636;2023-04-25T07:38:12;9.79;82.38
70851;DHT22;58475;49.662;9.636;2023-04-25T07:40:38;9.79;82.93
70851;DHT22;58475;49.662;9.636;2023-04-25T07:43:06;9.76;81.92
70851;DHT22;58475;49.662;9.636;2023-04-25T07:45:38;9.73;80.45
70851;DHT22;58475;49.662;9.636;2023-04-25T07:48:04;9.89;79.96
70851;DHT22;58475;49.662;9.636;2023-04-25T07:50:32;9.93;79.74
70851;DHT22;58475;49.662;9.636;2023-04-25T07:52:57;10.16;79.04
70851;DHT22;58475;49.662;9.636;2023-04-25T07:55:29;10.51;77.84
70851;DHT22;58475;49.662;9.636;2023-04-25T07:58:01;10.36;77.37
70851;DHT22;58475;49.662;9.636;2023-04-25T08:00:29;10.72;75.12
70851;DHT22;58475;49.662;9.636;2023-04-25T08:03:13;10.85;74.14
70851;DHT22;58475;49.662;9.636;2023-04-25T08:05:38;11.15;74.88
70851;DHT22;58475;49.662;9.636;2023-04-25T08:08:05;11.95;72.48
70851;DHT22;58475;49.662;9.636;2023-04-25T08:10:32;12.81;69.77
70851;DHT22;58475;49.662;9.636;2023-04-25T08:12:58;12.72;66.89
70851;DHT22;58475;49.662;9.636;2023-04-25T08:15:24;12.06;65.37
70851;DHT22;58475;49.662;9.636;2023-04-25T08:17:50;12.25;63.57
70851;DHT22;58475;49.662;9.636;2023-04-25T08:20:16;12.17;63.20
70851;DHT22;58475;49.662;9.636;2023-04-25T08:22:42;12.73;65.15
70851;DHT22;58475;49.662;9.636;2023-04-25T08:25:17;12.91;63.15
70851;DHT22;58475;49.662;9.636;2023-04-25T08:27:43;12.94;64.08
70851;DHT22;58475;49.662;9.636;2023-04-25T08:30:09;12.83;62.58
70851;DHT22;58475;49.662;9.636;2023-04-25T08:32:36;12.39;61.34
70851;DHT22;58475;49.662;9.636;2023-04-25T08:35:17;12.75;61.18
70851;DHT22;58475;49.662;9.636;2023-04-25T08:37:43;12.55;61.59
70851;DHT22;58475;49.662;9.636;2023-04-25T08:40:14;12.43;63.74
70851;DHT22;58475;49.662;9.636;2023-04-25T08:43:00;12.62;62.43
70851;DHT22;58475;49.662;9.636;2023-04-25T08:45:31;12.64;61.97
70851;DHT22;58475;49.662;9.636;2023-04-25T08:47:57;12.64;60.46
70851;DHT22;58475;49.662;9.636;2023-04-25T08:50:24;12.99;61.94
70851;DHT22;58475;49.662;9.636;2023-04-25T08:52:53;12.91;62.72
70851;DHT22;58475;49.662;9.636;2023-04-25T08:55:21;12.29;61.49
70851;DHT22;58475;49.662;9.636;2023-04-25T08:57:49;12.35;63.17
70851;DHT22;58475;49.662;9.636;2023-04-25T09:00:16;12.36;62.48
70851;DHT22;58475;49.662;9.636;2023-04-25T09:02:43;11.78;62.36
70851;DHT22;58475;49.662;9.636;2023-04-25T09:05:09;12.10;62.52
70851;DHT22;58475;49.662;9.636;2023-04-25T09:07:35;12.02;64.09
70851;DHT22;58475;49.662;9.636;2023-04-25T09:10:00;12.46;64.07
70851;DHT22;58475;49.662;9.636;2023-04-25T09:12:29;12.97;63.16
70851;DHT22;58475;49.662;9.636;2023-04-25T09:15:12;13.04;61.75
70851;DHT22;58475;49.662;9.636;2023-04-25T09:17:55;12.94;62.78
70851;DHT22;58475;49.662;9.636;2023-04-25T09:20:21;12.73;61.27
70851;DHT22;58475;49.662;9.636;2023-04-25T09:22:47;12.32;61.96
70851;DHT22;58475;49.662;9.636;2023-04-25T09:25:13;12.25;63.99
70851;DHT22;58475;49.662;9.636;2023-04-25T09:27:50;12.53;64.54
70851;DHT22;58475;49.662;9.636;2023-04-25T09:30:29;13.01;61.96
70851;DHT22;58475;49.662;9.636;2023-04-25T09:33:08;12.84;61.33
70851;DHT22;58475;49.662;9.636;2023-04-25T09:35:40;12.81;61.36
70851;DHT22;58475;49.662;9.636;2023-04-25T09:38:13;13.35;61.75
70851;DHT22;58475;49.662;9.636;2023-04-25T09:41:06;12.76;60.63
70851;DHT22;58475;49.662;9.636;2023-04-25T09:43:39;12.93;60.16
70851;DHT22;58475;49.662;9.636;2023-04-25T09:46:09;12.33;60.81
70851;DHT22;58475;49.662;9.636;2023-04-25T09:48:38;12.17;62.23
70851;DHT22;58475;49.662;9.636;2023-04-25T09:51:13;12.24;61.59
70851;DHT22;58475;49.662;9.636;2023-04-25T09:53:43;12.90;62.55
70851;DHT22;58475;49.662;9.636;2023-04-25T09:56:36;13.11;59.39
70851;DHT22;58475;49.662;9.636;2023-04-25T09:59:05;13.41;60.53
70851;DHT22;58475;49.662;9.636;2023-04-25T10:01:32;14.52;60.57
70851;DHT22;58475;49.662;9.636;2023-04-25T10:04:12;15.61;58.06
70851;DHT22;58475;49.662;9.636;2023-04-25T10:06:52;14.96;54.54
70851;DHT22;58475;49.662;9.636;2023-04-25T10:09:25;14.37;57.00
70851;DHT22;58475;49.662;9.636;2023-04-25T10:11:51;14.95;57.21
70851;DHT22;58475;49.662;9.636;2023-04-25T10:14:18;15.09;56.10
70851;DHT22;58475;49.662;9.636;2023-04-25T10:16:44;15.64;56.29
70851;DHT22;58475;49.662;9.636;2023-04-25T10:19:23;15.83;55.57
70851;DHT22;58475;49.662;9.636;2023-04-25T10:22:07;13.90;57.01
70851;DHT22;58475;49.662;9.636;2023-04-25T10:24:35;14.33;58.24
70851;DHT22;58475;49.662;9.636;2023-04-25T10:27:02;14.85;59.33
70851;DHT22;58475;49.662;9.636;2023-04-25T10:29:27;15.20;56.69
70851;DHT22;58475;49.662;9.636;2023-04-25T10:31:53;14.93;56.25
70851;DHT22;58475;49.662;9.636;2023-04-25T10:34:19;14.19;56.33
70851;DHT22;58475;49.662;9.636;2023-04-25T10:36:51;13.49;57.74
70851;DHT22;58475;49.662;9.636;2023-04-25T10:39:25;13.98;60.56
70851;DHT22;58475;49.662;9.636;2023-04-25T10:42:01;13.69;59.06
70851;DHT22;58475;49.662;9.636;2023-04-25T10:44:28;13.41;60.56
70851;DHT22;58475;49.662;9.636;2023-04-25T10:46:58;13.63;59.83
70851;DHT22;58475;49.662;9.636;2023-04-25T10:49:34;13.20;60.99
70851;DHT22;58475;49.662;9.636;2023-04-25T10:52:16;13.27;60.89
70851;DHT22;58475;49.662;9.636;2023-04-25T10:54:46;13.20;61.74
70851;DHT22;58475;49.662;9.636;2023-04-25T10:57:44;13.76;60.85
70851;DHT22;58475;49.662;9.636;2023-04-25T11:00:23;13.57;60.01
70851;DHT22;58475;49.662;9.636;2023-04-25T11:02:58;13.08;59.82
70851;DHT22;58475;49.662;9.636;2023-04-25T11:05:31;12.75;59.05
70851;DHT22;58475;49.662;9.636;2023-04-25T11:07:57;12.66;60.95
70851;DHT22;58475;49.662;9.636;2023-04-25T11:10:31;12.81;62.32
70851;DHT22;58475;49.662;9.636;2023-04-25T11:12:59;13.10;59.34
70851;DHT22;58475;49.662;9.636;2023-04-25T11:15:25;13.52;60.82
70851;DHT22;58475;49.662;9.636;2023-04-25T11:17:52;14.03;59.75
70851;DHT22;58475;49.662;9.636;2023-04-25T11:20:17;13.61;59.53
70851;DHT22;58475;49.662;9.636;2023-04-25T11:22:44;13.45;60.31
70851;DHT22;58475;49.662;9.636;2023-04-25T11:25:12;12.87;59.79
70851;DHT22;58475;49.662;9.636;2023-04-25T11:27:59;13.12;60.93
70851;DHT22;58475;49.662;9.636;2023-04-25T11:30:26;12.96;60.24
70851;DHT22;58475;49.662;9.636;2023-04-25T11:32:52;13.22;59.52
70851;DHT22;58475;49.662;9.636;2023-04-25T11:35:19;13.78;58.71
70851;DHT22;58475;49.662;9.636;2023-04-25T11:37:45;14.38;57.13
70851;DHT22;58475;49.662;9.636;2023-04-25T11:40:11;14.38;55.42
70851;DHT22;58475;49.662;9.636;2023-04-25T11:42:37;14.34;55.47
70851;DHT22;58475;49.662;9.636;2023-04-25T11:45:03;14.56;55.57
70851;DHT22;58475;49.662;9.636;2023-04-25T11:47:30;14.03;56.61
70851;DHT22;58475;49.662;9.636;2023-04-25T11:49:58;14.34;58.03
70851;DHT22;58475;49.662;9.636;2023-04-25T11:52:34;13.93;57.89
70851;DHT22;58475;49.662;9.636;2023-04-25T11:54:59;13.14;58.25
70851;DHT22;58475;49.662;9.636;2023-04-25T11:57:25;12.83;59.49
70851;DHT22;58475;49.662;9.636;2023-04-25T11:59:50;12.80;59.99
70851;DHT22;58475;49.662;9.636;2023-04-25T12:02:25;12.90;58.70
70851;DHT22;58475;49.662;9.636;2023-04-25T12:04:51;12.83;59.65
70851;DHT22;58475;49.662;9.636;2023-04-25T12:07:17;12.57;59.94
70851;DHT22;58475;49.662;9.636;2023-04-25T12:09:51;12.63;61.09
70851;DHT22;58475;49.662;9.636;2023-04-25T12:12:17;12.73;60.35
70851;DHT22;58475;49.662;9.636;2023-04-25T12:14:46;12.22;60.51
70851;DHT22;58475;49.662;9.636;2023-04-25T12:17:12;12.59;60.43
70851;DHT22;58475;49.662;9.636;2023-04-25T12:19:38;12.53;60.47
70851;DHT22;58475;49.662;9.636;2023-04-25T12:22:22;13.24;61.20
70851;DHT22;58475;49.662;9.636;2023-04-25T12:24:48;13.11;60.01
70851;DHT22;58475;49.662;9.636;2023-04-25T12:27:15;13.57;60.24
70851;DHT22;58475;49.662;9.636;2023-04-25T12:29:51;13.27;58.95
70851;DHT22;58475;49.662;9.636;2023-04-25T12:32:16;13.04;59.99
70851;DHT22;58475;49.662;9.636;2023-04-25T12:34:43;13.37;59.76
70851;DHT22;58475;49.662;9.636;2023-04-25T12:37:09;13.45;60.13
70851;DHT22;58475;49.662;9.636;2023-04-25T12:39:34;13.20;59.47
70851;DHT22;58475;49.662;9.636;2023-04-25T12:42:00;13.49;58.57
70851;DHT22;58475;49.662;9.636;2023-04-25T12:44:26;13.34;59.95
70851;DHT22;58475;49.662;9.636;2023-04-25T12:46:51;13.24;59.16
70851;DHT22;58475;49.662;9.636;2023-04-25T12:49:17;13.07;59.27
70851;DHT22;58475;49.662;9.636;2023-04-25T12:51:43;12.39;60.65
70851;DHT22;58475;49.662;9.636;2023-04-25T12:54:09;12.62;60.40
70851;DHT22;58475;49.662;9.636;2023-04-25T12:56:35;12.63;59.67
70851;DHT22;58475;49.662;9.636;2023-04-25T12:59:01;12.67;59.77
70851;DHT22;58475;49.662;9.636;2023-04-25T13:01:28;13.03;60.73
70851;DHT22;58475;49.662;9.636;2023-04-25T13:03:54;13.28;60.85
70851;DHT22;58475;49.662;9.636;2023-04-25T13:06:20;13.17;60.26
70851;DHT22;58475;49.662;9.636;2023-04-25T13:08:46;13.35;60.94
70851;DHT22;58475;49.662;9.636;2023-04-25T13:11:11;13.34;60.26
70851;DHT22;58475;49.662;9.636;2023-04-25T13:13:37;13.31;60.17
70851;DHT22;58475;49.662;9.636;2023-04-25T13:16:06;14.19;58.91
70851;DHT22;58475;49.662;9.636;2023-04-25T13:18:32;14.68;57.88
70851;DHT22;58475;49.662;9.636;2023-04-25T13:20:58;14.82;56.97
70851;DHT22;58475;49.662;9.636;2023-04-25T13:23:26;14.75;59.26
70851;DHT22;58475;49.662;9.636;2023-04-25T13:25:52;14.19;58.31
70851;DHT22;58475;49.662;9.636;2023-04-25T13:28:17;13.52;58.94
70851;DHT22;58475;49.662;9.636;2023-04-25T13:30:43;13.22;59.92
70851;DHT22;58475;49.662;9.636;2023-04-25T13:33:09;12.89;60.28
70851;DHT22;58475;49.662;9.636;2023-04-25T13:35:36;12.57;60.79
70851;DHT22;58475;49.662;9.636;2023-04-25T13:38:02;13.06;61.54
70851;DHT22;58475;49.662;9.636;2023-04-25T13:40:28;12.81;59.71
70851;DHT22;58475;49.662;9.636;2023-04-25T13:42:53;12.57;60.23
70851;DHT22;58475;49.662;9.636;2023-04-25T13:45:19;12.25;62.08
70851;DHT22;58475;49.662;9.636;2023-04-25T13:47:45;12.53;62.88
70851;DHT22;58475;49.662;9.636;2023-04-25T13:50:11;12.18;61.00
70851;DHT22;58475;49.662;9.636;2023-04-25T13:52:36;12.17;61.59
70851;DHT22;58475;49.662;9.636;2023-04-25T13:55:02;12.38;60.84
70851;DHT22;58475;49.662;9.636;2023-04-25T13:57:30;12.49;61.97
70851;DHT22;58475;49.662;9.636;2023-04-25T13:59:55;12.66;61.12
70851;DHT22;58475;49.662;9.636;2023-04-25T14:02:21;12.63;60.74
70851;DHT22;58475;49.662;9.636;2023-04-25T14:04:46;13.03;60.59
70851;DHT22;58475;49.662;9.636;2023-04-25T14:07:12;13.18;61.05
70851;DHT22;58475;49.662;9.636;2023-04-25T14:09:41;14.06;58.86
70851;DHT22;58475;49.662;9.636;2023-04-25T14:12:06;14.57;58.05
70851;DHT22;58475;49.662;9.636;2023-04-25T14:14:32;14.36;55.96
70851;DHT22;58475;49.662;9.636;2023-04-25T14:16:57;14.31;57.02
70851;DHT22;58475;49.662;9.636;2023-04-25T14:19:23;14.96;56.37
70851;DHT22;58475;49.662;9.636;2023-04-25T14:21:49;14.54;55.12
70851;DHT22;58475;49.662;9.636;2023-04-25T14:24:14;14.02;55.77
70851;DHT22;58475;49.662;9.636;2023-04-25T14:26:39;14.00;55.33
70851;DHT22;58475;49.662;9.636;2023-04-25T14:29:06;13.66;57.53
70851;DHT22;58475;49.662;9.636;2023-04-25T14:31:33;13.86;56.68
70851;DHT22;58475;49.662;9.636;2023-04-25T14:33:58;13.31;56.98
70851;DHT22;58475;49.662;9.636;2023-04-25T14:36:23;12.60;57.69
70851;DHT22;58475;49.662;9.636;2023-04-25T14:38:49;12.10;58.02
70851;DHT22;58475;49.662;9.636;2023-04-25T14:41:14;12.33;59.25
70851;DHT22;58475;49.662;9.636;2023-04-25T14:43:40;11.94;58.61
70851;DHT22;58475;49.662;9.636;2023-04-25T14:46:10;11.97;59.97
70851;DHT22;58475;49.662;9.636;2023-04-25T14:48:36;11.91;59.72
70851;DHT22;58475;49.662;9.636;2023-04-25T14:51:01;11.94;58.95
70851;DHT22;58475;49.662;9.636;2023-04-25T14:53:27;12.29;59.80
70851;DHT22;58475;49.662;9.636;2023-04-25T14:55:52;12.10;60.03
70851;DHT22;58475;49.662;9.636;2023-04-25T14:58:18;12.18;60.09
70851;DHT22;58475;49.662;9.636;2023-04-25T15:00:43;12.17;60.68
70851;DHT22;58475;49.662;9.636;2023-04-25T15:03:09;11.92;59.54
70851;DHT22;58475;49.662;9.636;2023-04-25T15:05:37;11.91;59.13
70851;DHT22;58475;49.662;9.636;2023-04-25T15:08:02;12.26;59.49
70851;DHT22;58475;49.662;9.636;2023-04-25T15:10:28;12.28;60.93
70851;DHT22;58475;49.662;9.636;2023-04-25T15:12:53;12.33;60.74
70851;DHT22;58475;49.662;9.636;2023-04-25T15:15:19;12.04;58.39
70851;DHT22;58475;49.662;9.636;2023-04-25T15:17:45;12.14;59.76
70851;DHT22;58475;49.662;9.636;2023-04-25T15:20:12;12.21;59.60
70851;DHT22;58475;49.662;9.636;2023-04-25T15:22:43;12.17;59.31
70851;DHT22;58475;49.662;9.636;2023-04-25T15:25:10;12.31;59.21
70851;DHT22;58475;49.662;9.636;2023-04-25T15:27:39;11.95;57.99
70851;DHT22;58475;49.662;9.636;2023-04-25T15:30:12;12.05;60.29
70851;DHT22;58475;49.662;9.636;2023-04-25T15:32:43;11.95;57.91
70851;DHT22;58475;49.662;9.636;2023-04-25T15:35:09;12.01;59.41
70851;DHT22;58475;49.662;9.636;2023-04-25T15:37:35;12.05;58.66
70851;DHT22;58475;49.662;9.636;2023-04-25T15:40:13;12.25;58.52
70851;DHT22;58475;49.662;9.636;2023-04-25T15:42:49;12.45;57.88
70851;DHT22;58475;49.662;9.636;2023-04-25T15:45:19;12.28;57.25
70851;DHT22;58475;49.662;9.636;2023-04-25T15:47:46;12.02;58.31